Flight Track Log - Related Links

Times and Time Zones

All times are in EDT time to prevent confusion due to time zone crossing. See the N99TD flight status page for this flight to view local times or setup timezone preferences in your user account.


Time Position Orientation Groundspeed Altitude Reporting Facility
EDT Latitude Longitude Course Direction KTS MPH feet Rate Location/Type
Tue 01:43:00 PM 29.3019 -81.1042 76° East 123 142 300  Level Jacksonville Center
Tue 01:44:01 PM 29.3100 -81.0683 76° East 115 132 1,100 689 Climbing Jacksonville Center
Tue 01:45:02 PM 29.2886 -81.0497 143° Southeast 134 154 1,700 694 Climbing Jacksonville Center
Tue 01:46:02 PM 29.2558 -81.0764 215° Southwest 139 160 2,500 744 Climbing Jacksonville Center
Tue 01:47:03 PM 29.2247 -81.1033 217° Southwest 139 160 3,200 655 Climbing Jacksonville Center
Tue 01:48:47 PM 29.1667 -81.1500 215° Southwest 150 173 4,300 695 Climbing Orlando TRACON
Tue 01:49:47 PM 29.1333 -81.1833 221° Southwest 150 173 5,100 750 Climbing Orlando TRACON
Tue 01:50:47 PM 29.1000 -81.2000 204° Southwest 145 167 5,800 700 Climbing Orlando TRACON
Tue 01:51:47 PM 29.0667 -81.2333 221° Southwest 145 167 6,500 667 Climbing Orlando TRACON
Tue 01:52:53 PM 29.0333 -81.2500 204° Southwest 140 161 7,200 571 Climbing Orlando TRACON
Tue 01:53:53 PM 29.0000 -81.2833 221° Southwest 145 167 7,700 400 Climbing Orlando TRACON
Tue 01:54:53 PM 28.9833 -81.3167 240° Southwest 148 170 8,000 149 Climbing Orlando TRACON
Tue 01:55:54 PM 28.9500 -81.3500 221° Southwest 159 183 8,000 -50 Level Orlando TRACON
Tue 01:56:54 PM 28.9167 -81.4000 233° Southwest 164 189 7,900  Descending Orlando TRACON
Tue 01:57:54 PM 28.9000 -81.4333 240° Southwest 154 177 8,000 50 Climbing Orlando TRACON
Tue 01:58:55 PM 28.8833 -81.4833 249° West 157 181 8,000  Level Orlando TRACON
Tue 01:59:55 PM 28.8667 -81.5333 249° West 158 182 8,000 48 Level Orlando TRACON
Tue 02:01:01 PM 28.8500 -81.5833 249° West 158 182 8,100  Climbing Orlando TRACON
Tue 02:02:01 PM 28.8333 -81.6333 249° West 159 183 8,000 -50 Descending Orlando TRACON
Tue 02:03:01 PM 28.8000 -81.6833 233° Southwest 161 185 8,000 53 Level Orlando TRACON
Tue 02:03:55 PM 28.7667 -81.7000 204° Southwest 166 191 8,100  Climbing Orlando TRACON
Tue 02:04:55 PM 28.7333 -81.7333 221° Southwest 164 189 8,000 -55 Descending Orlando TRACON
Tue 02:05:44 PM 28.7167 -81.7667 240° Southwest 161 185 8,000  Level Orlando TRACON
Tue 02:06:50 PM 28.6833 -81.8000 221° Southwest 161 185 8,000  Level Orlando TRACON
Tue 02:08:35 PM 28.6333 -81.8833 236° Southwest 163 188 8,000  Level Tampa TRACON
Tue 02:09:35 PM 28.6000 -81.9167 221° Southwest 167 192 8,000 50 Level Tampa TRACON
Tue 02:10:35 PM 28.5833 -81.9500 240° Southwest 169 194 8,100 52 Climbing Tampa TRACON
Tue 02:11:30 PM 28.5500 -81.9833 221° Southwest 164 189 8,100 -47 Level Tampa TRACON
Tue 02:12:42 PM 28.5167 -82.0500 240° Southwest 165 190 8,000 -136 Descending Tampa TRACON
Tue 02:13:42 PM 28.4833 -82.0833 221° Southwest 170 196 7,800 -450 Descending Tampa TRACON
Tue 02:14:42 PM 28.4667 -82.1333 249° West 182 209 7,100 -684 Descending Tampa TRACON
Tue 02:15:36 PM 28.4500 -82.1833 249° West 190 219 6,500 -611 Descending Tampa TRACON
Tue 02:16:30 PM 28.4000 -82.1833 180° South 192 221 6,000 -250 Descending Tampa TRACON
Tue 02:17:36 PM 28.3500 -82.2000 196° South 180 207 6,000 48 Level Tampa TRACON
Tue 02:18:36 PM 28.3000 -82.2167 196° South 166 191 6,100 -50 Climbing Tampa TRACON
Tue 02:19:36 PM 28.2500 -82.2333 196° South 167 192 5,900 -400 Descending Tampa TRACON
Tue 02:20:36 PM 28.2000 -82.2500 196° South 179 206 5,300 -421 Descending Tampa TRACON
Tue 02:21:30 PM 28.1667 -82.2667 204° Southwest 186 214 5,100 -350 Descending Tampa TRACON
Tue 02:22:36 PM 28.1167 -82.3000 210° Southwest 183 211 4,600 -500 Descending Tampa TRACON
Tue 02:23:42 PM 28.0500 -82.3167 192° South 180 207 4,000 -286 Descending Tampa TRACON
Tue 02:24:42 PM 28.0167 -82.3333 204° Southwest 167 192 4,000  Level Tampa TRACON
Tue 02:25:42 PM 27.9833 -82.3667 221° Southwest 163 188 4,000  Level Tampa TRACON
Tue 02:26:36 PM 27.9667 -82.4167 249° West 160 184 4,000 50 Level Tampa TRACON
Tue 02:27:42 PM 27.9667 -82.4667 270° West 158 182 4,100 -143 Climbing Tampa TRACON
Tue 02:28:42 PM 27.9667 -82.5167 270° West 163 188 3,700 -500 Descending Tampa TRACON
Tue 02:29:42 PM 27.9667 -82.5833 270° West 178 205 3,100 -611 Descending Tampa TRACON
Tue 02:30:30 PM 27.9500 -82.6167 240° Southwest 179 206 2,600 -353 Descending Tampa TRACON
Tue 02:31:24 PM 27.9500 -82.6667 270° West 166 191 2,500 -421 Descending Tampa TRACON
Tue 02:32:24 PM 27.9167 -82.6667 180° South 156 180 1,800 -750 Descending Tampa TRACON
Tue 02:33:24 PM 27.8833 -82.6667 180° South 137 158 1,000 -800 Descending Tampa TRACON

Login

Don't have an account? Register now (free) for customized features, flight alerts, and more!